createdAt,value
2018-03-14T09:16:45.487Z,14.80
2018-03-14T09:19:13.831Z,12.82
2018-03-14T09:21:42.157Z,10.03
2018-03-14T09:24:10.494Z,8.50
2018-03-14T09:26:38.818Z,19.80
2018-03-14T09:29:07.150Z,9.90
2018-03-14T09:31:35.470Z,15.13
2018-03-14T09:34:04.068Z,11.95
2018-03-14T09:36:32.391Z,10.10
2018-03-14T09:39:00.734Z,14.93
2018-03-14T09:41:29.061Z,10.60
2018-03-14T09:43:57.409Z,18.13
2018-03-14T09:46:25.730Z,12.80
2018-03-14T09:48:54.075Z,7.70
2018-03-14T09:51:22.413Z,7.37
2018-03-14T09:53:50.725Z,12.37
2018-03-14T09:56:19.052Z,10.43
2018-03-14T09:58:47.393Z,13.75
2018-03-14T10:01:15.719Z,10.73
2018-03-14T10:03:44.082Z,9.83
2018-03-14T10:06:12.401Z,15.13
2018-03-14T10:08:40.726Z,12.00
2018-03-14T10:11:09.074Z,18.53
2018-03-14T10:13:37.395Z,8.47
2018-03-14T10:16:06.710Z,16.67
2018-03-14T10:18:35.030Z,12.87
2018-03-14T10:21:03.375Z,7.97
2018-03-14T10:23:31.690Z,19.20
2018-03-14T10:26:00.044Z,9.85
2018-03-14T10:28:28.358Z,11.17
2018-03-14T10:30:56.702Z,10.90
2018-03-14T10:33:25.022Z,9.77
2018-03-14T10:35:53.362Z,10.30
2018-03-14T10:38:21.681Z,16.50
2018-03-14T10:40:50.054Z,7.70
2018-03-14T10:43:18.371Z,5.93
2018-03-14T10:45:46.690Z,7.87
2018-03-14T10:48:15.033Z,8.25
2018-03-14T10:50:43.348Z,8.50
2018-03-14T10:53:11.685Z,13.77
2018-03-14T10:55:40.005Z,9.47
2018-03-14T10:58:08.346Z,10.73
2018-03-14T11:00:42.239Z,6.40
2018-03-14T11:03:16.294Z,19.25
2018-03-14T11:05:44.619Z,4.43
2018-03-14T11:08:12.957Z,13.63
2018-03-14T11:10:41.269Z,4.30
2018-03-14T11:13:09.609Z,3.10
2018-03-14T11:15:37.930Z,6.32
2018-03-14T11:18:06.281Z,9.80
2018-03-14T11:20:34.586Z,11.77
2018-03-14T11:23:02.906Z,8.67
2018-03-14T11:25:31.308Z,9.30
2018-03-14T11:27:59.606Z,8.83
2018-03-14T11:30:27.934Z,7.78
2018-03-14T11:32:56.260Z,17.87
2018-03-14T11:35:24.602Z,15.23
2018-03-14T11:37:52.923Z,7.50
2018-03-14T11:40:21.259Z,9.43
2018-03-14T11:42:49.575Z,6.80
2018-03-14T11:45:17.915Z,15.17
2018-03-14T11:47:46.238Z,10.13
2018-03-14T11:50:14.578Z,8.27
2018-03-14T11:52:42.902Z,6.07
2018-03-14T11:55:11.238Z,9.40
2018-03-14T11:57:40.394Z,12.57
2018-03-14T12:00:08.729Z,6.40
2018-03-14T12:02:37.046Z,8.60
2018-03-14T12:05:05.382Z,8.98
2018-03-14T12:07:33.695Z,8.40
2018-03-14T12:10:02.067Z,13.73
2018-03-14T12:12:30.382Z,6.90
2018-03-14T12:14:58.719Z,9.20
2018-03-14T12:17:27.070Z,13.13
2018-03-14T12:19:55.418Z,8.33
2018-03-14T12:22:29.510Z,13.10
2018-03-14T12:24:57.879Z,11.50
2018-03-14T12:27:26.202Z,7.07
2018-03-14T12:29:54.564Z,6.60
2018-03-14T12:32:22.853Z,7.53
2018-03-14T12:34:51.182Z,15.77
2018-03-14T12:37:19.514Z,6.25
2018-03-14T12:39:47.832Z,10.97
2018-03-14T12:42:16.186Z,10.47
2018-03-14T12:44:44.497Z,9.48
2018-03-14T12:47:12.838Z,7.47
2018-03-14T12:49:41.151Z,8.05
2018-03-14T12:52:09.484Z,9.43
2018-03-14T12:54:37.802Z,10.63
2018-03-14T12:57:06.149Z,11.93
2018-03-14T12:59:34.474Z,9.67
2018-03-14T13:02:02.809Z,11.30
2018-03-14T13:04:31.122Z,9.63
2018-03-14T13:06:59.441Z,10.60
2018-03-14T13:09:27.782Z,10.73
2018-03-14T13:11:56.114Z,12.75
2018-03-14T13:14:24.462Z,21.83
2018-03-14T13:16:52.779Z,9.85
2018-03-14T13:19:21.746Z,20.20
2018-03-14T13:21:50.066Z,11.70
2018-03-14T13:24:18.406Z,6.47
2018-03-14T13:26:46.722Z,6.37
2018-03-14T13:29:15.063Z,8.07
2018-03-14T13:31:43.376Z,9.50
2018-03-14T13:34:11.713Z,4.70
2018-03-14T13:36:40.023Z,4.90
2018-03-14T13:39:09.330Z,13.05
2018-03-14T13:41:37.651Z,9.70
2018-03-14T13:44:05.988Z,9.67
2018-03-14T13:46:34.306Z,6.55
2018-03-14T13:49:02.640Z,4.73
2018-03-14T13:51:30.968Z,10.73
2018-03-14T13:53:59.295Z,13.83
2018-03-14T13:56:27.630Z,8.33
2018-03-14T13:58:56.076Z,15.57
2018-03-14T14:01:24.413Z,15.37
2018-03-14T14:03:52.738Z,21.93
2018-03-14T14:06:21.082Z,26.63
2018-03-14T14:08:49.402Z,21.77
2018-03-14T14:11:17.759Z,17.03
2018-03-14T14:13:46.074Z,16.90
2018-03-14T14:16:14.419Z,11.90
2018-03-14T14:18:42.739Z,9.47
2018-03-14T14:21:11.072Z,6.70
2018-03-14T14:23:39.389Z,11.93
2018-03-14T14:26:07.734Z,19.70
2018-03-14T14:28:36.053Z,9.10
2018-03-14T14:31:04.410Z,14.38
2018-03-14T14:33:32.729Z,8.40
2018-03-14T14:36:01.054Z,14.00
2018-03-14T14:38:29.397Z,18.90
2018-03-14T14:40:57.718Z,15.27
2018-03-14T14:43:26.061Z,16.23
2018-03-14T14:45:54.382Z,21.58
2018-03-14T14:48:22.725Z,23.15
2018-03-14T14:50:51.054Z,14.13
2018-03-14T14:53:19.398Z,24.00
2018-03-14T14:55:47.726Z,19.60
2018-03-14T14:58:16.074Z,22.83
2018-03-14T15:00:44.407Z,20.37
2018-03-14T15:03:12.756Z,23.53
2018-03-14T15:05:41.077Z,20.60
2018-03-14T15:08:10.126Z,27.40
2018-03-14T15:10:38.466Z,22.37
2018-03-14T15:13:06.828Z,18.60
2018-03-14T15:15:35.150Z,23.50
2018-03-14T15:18:03.522Z,26.87
2018-03-14T15:20:31.846Z,14.67
2018-03-14T15:23:00.173Z,19.50
2018-03-14T15:25:28.522Z,23.20
2018-03-14T15:27:56.929Z,20.60
2018-03-14T15:30:25.203Z,29.40
2018-03-14T15:32:53.534Z,26.12
2018-03-14T15:35:21.890Z,19.80
2018-03-14T15:37:50.214Z,20.90
2018-03-14T15:40:18.562Z,11.33
2018-03-14T15:42:46.882Z,13.80
2018-03-14T15:45:15.230Z,11.98
2018-03-14T15:47:43.562Z,13.73
2018-03-14T15:50:11.894Z,19.93
2018-03-14T15:52:40.225Z,25.53
2018-03-14T15:55:08.582Z,12.43
2018-03-14T15:57:36.907Z,27.37
2018-03-14T16:00:05.231Z,12.77
2018-03-14T16:02:33.579Z,17.20
2018-03-14T16:05:01.898Z,18.77
2018-03-14T16:07:30.246Z,23.12
2018-03-14T16:09:58.574Z,20.93
2018-03-14T16:12:26.922Z,15.57
2018-03-14T16:14:55.893Z,13.43
2018-03-14T16:17:24.243Z,26.07
2018-03-14T16:19:52.570Z,47.93
2018-03-14T16:22:20.919Z,19.27
2018-03-14T16:24:49.250Z,14.73
2018-03-14T16:27:17.592Z,20.83
2018-03-14T16:29:45.909Z,25.15
2018-03-14T16:32:14.438Z,12.43
2018-03-14T16:34:43.766Z,19.62
2018-03-14T16:37:12.272Z,19.20
2018-03-14T16:39:40.753Z,23.23
2018-03-14T16:42:09.175Z,15.80
2018-03-14T16:44:37.669Z,20.77
2018-03-14T16:47:06.087Z,24.60
2018-03-14T16:49:34.575Z,14.37
2018-03-14T16:52:03.016Z,14.00
2018-03-14T16:54:32.401Z,16.08
2018-03-14T16:57:01.075Z,19.93
2018-03-14T16:59:29.696Z,20.58
2018-03-14T17:01:58.221Z,26.03
2018-03-14T17:04:26.656Z,25.23
2018-03-14T17:06:55.160Z,19.60
2018-03-14T17:09:23.612Z,23.70
2018-03-14T17:11:52.088Z,18.27
2018-03-14T17:14:27.279Z,22.77
2018-03-14T17:16:52.789Z,27.15
2018-03-14T17:19:21.335Z,19.60
2018-03-14T17:21:49.948Z,22.40
2018-03-14T17:24:18.550Z,22.03
2018-03-14T17:26:47.030Z,18.83
2018-03-14T17:29:15.519Z,26.23
2018-03-14T17:31:43.924Z,15.20
2018-03-14T17:34:12.496Z,12.67
2018-03-14T17:36:40.884Z,20.40
2018-03-14T17:39:09.387Z,18.10
2018-03-14T17:41:37.868Z,27.23
2018-03-14T17:44:06.302Z,26.98
2018-03-14T17:46:34.728Z,18.30
2018-03-14T17:49:03.195Z,21.00
2018-03-14T17:51:31.747Z,19.60
2018-03-14T17:54:00.234Z,29.20
2018-03-14T17:56:28.756Z,38.70
2018-03-14T17:58:57.251Z,31.27
2018-03-14T18:01:25.771Z,30.83
2018-03-14T18:03:54.246Z,34.47
2018-03-14T18:06:22.672Z,45.88
2018-03-14T18:08:51.272Z,25.17
2018-03-14T18:11:19.957Z,25.63
2018-03-14T18:13:48.553Z,25.07
2018-03-14T18:16:18.027Z,18.40
2018-03-14T18:18:46.530Z,20.23
2018-03-14T18:21:14.930Z,25.77
2018-03-14T18:23:43.390Z,32.17
2018-03-14T18:26:12.744Z,27.37
2018-03-14T18:28:41.211Z,29.73
2018-03-14T18:31:09.639Z,42.37
2018-03-14T18:33:38.173Z,84.30
2018-03-14T18:36:06.598Z,81.57
2018-03-14T18:38:35.025Z,47.38
2018-03-14T18:41:03.594Z,31.77
2018-03-14T18:43:32.099Z,22.90
2018-03-14T18:46:00.511Z,17.37
2018-03-14T18:48:29.087Z,18.37
2018-03-14T18:50:57.495Z,23.53
2018-03-14T18:53:25.956Z,22.10
2018-03-14T18:55:54.611Z,22.15
2018-03-14T18:58:23.000Z,16.70
2018-03-14T19:00:51.568Z,30.40
2018-03-14T19:03:20.016Z,24.27
2018-03-14T19:05:48.531Z,25.10
2018-03-14T19:08:16.930Z,24.98
2018-03-14T19:10:45.552Z,19.07
2018-03-14T19:13:14.163Z,17.53
2018-03-14T19:15:42.781Z,27.08
2018-03-14T19:18:11.257Z,23.93
2018-03-14T19:20:40.012Z,19.73
2018-03-14T19:23:08.460Z,11.33
2018-03-14T19:25:36.939Z,13.27
2018-03-14T19:28:05.406Z,15.07
2018-03-14T19:30:33.842Z,10.70
2018-03-14T19:33:02.434Z,10.27
2018-03-14T19:35:30.998Z,11.52
2018-03-14T19:37:59.538Z,11.70
2018-03-14T19:40:28.030Z,11.23
2018-03-14T19:42:56.436Z,16.13
2018-03-14T19:45:24.922Z,12.93
2018-03-14T19:47:53.327Z,11.80
2018-03-14T19:50:21.746Z,14.40
2018-03-14T19:52:50.232Z,11.67
2018-03-14T19:55:18.853Z,11.30
2018-03-14T19:57:47.326Z,11.33
2018-03-14T20:00:16.730Z,13.05
2018-03-14T20:02:45.360Z,15.82
2018-03-14T20:05:13.893Z,17.10
2018-03-14T20:07:42.386Z,14.60
2018-03-14T20:10:10.936Z,14.05
2018-03-14T20:12:39.448Z,14.67
2018-03-14T20:15:07.853Z,13.75
2018-03-14T20:17:36.383Z,17.83
2018-03-14T20:20:04.703Z,15.75
2018-03-14T20:22:33.138Z,17.37
2018-03-14T20:25:02.414Z,16.30
2018-03-14T20:27:30.752Z,17.08
2018-03-14T20:29:59.162Z,16.00
2018-03-14T20:32:27.487Z,13.83
2018-03-14T20:34:55.839Z,15.87
2018-03-14T20:37:24.169Z,19.00
2018-03-14T20:39:52.521Z,12.87
2018-03-14T20:42:21.412Z,15.30
2018-03-14T20:44:49.845Z,11.93
2018-03-14T20:47:18.167Z,16.43
2018-03-14T20:49:46.521Z,17.33
2018-03-14T20:52:14.852Z,18.13
2018-03-14T20:54:43.213Z,16.30
2018-03-14T20:57:11.550Z,19.07
2018-03-14T20:59:39.883Z,15.40
2018-03-14T21:02:08.224Z,25.40
2018-03-14T21:04:36.553Z,22.25
2018-03-14T21:07:04.910Z,19.37
2018-03-14T21:09:33.265Z,28.53
2018-03-14T21:12:01.603Z,21.35
2018-03-14T21:14:29.962Z,22.40
2018-03-14T21:16:58.282Z,20.27
2018-03-14T21:19:26.609Z,21.87
2018-03-14T21:21:54.966Z,23.47
2018-03-14T21:24:23.295Z,19.05
2018-03-14T21:26:51.645Z,21.50
2018-03-14T21:29:19.980Z,18.00
2018-03-14T21:31:48.305Z,20.83
2018-03-14T21:34:16.658Z,21.60
2018-03-14T21:36:46.019Z,25.92
2018-03-14T21:39:14.476Z,17.33
2018-03-14T21:41:42.701Z,15.67
2018-03-14T21:44:11.046Z,17.55
2018-03-14T21:46:40.262Z,15.48
2018-03-14T21:49:08.610Z,14.48
2018-03-14T21:51:36.972Z,28.23
2018-03-14T21:54:05.302Z,24.57
2018-03-14T21:56:34.654Z,14.68
2018-03-14T21:59:03.010Z,20.20
2018-03-14T22:01:31.330Z,18.90
2018-03-14T22:03:59.654Z,13.97
2018-03-14T22:06:28.003Z,18.43
2018-03-14T22:08:56.328Z,23.25
2018-03-14T22:11:24.671Z,15.57
2018-03-14T22:13:52.994Z,19.53
2018-03-14T22:16:22.374Z,19.15
2018-03-14T22:18:50.707Z,22.10
2018-03-14T22:21:19.047Z,20.63
2018-03-14T22:23:47.370Z,15.07
2018-03-14T22:26:15.718Z,18.03
2018-03-14T22:28:44.042Z,13.40
2018-03-14T22:31:12.395Z,15.57
2018-03-14T22:33:40.697Z,17.90
2018-03-14T22:36:09.033Z,12.70
2018-03-14T22:38:37.362Z,12.45
2018-03-14T22:41:05.702Z,21.27
2018-03-14T22:43:34.022Z,18.58
2018-03-14T22:46:02.629Z,14.75
2018-03-14T22:48:30.954Z,19.30
2018-03-14T22:50:59.274Z,19.35
2018-03-14T22:53:27.613Z,12.48
2018-03-14T22:55:55.934Z,16.17
2018-03-14T22:58:24.279Z,12.57
2018-03-14T23:00:52.594Z,14.77
2018-03-14T23:03:20.938Z,14.32
2018-03-14T23:05:49.254Z,19.42
2018-03-14T23:08:17.599Z,15.95
2018-03-14T23:10:45.917Z,14.60
2018-03-14T23:13:14.259Z,18.37
2018-03-14T23:15:42.578Z,18.30
2018-03-14T23:18:10.921Z,14.25
2018-03-14T23:20:39.242Z,17.60
2018-03-14T23:23:07.594Z,18.35
2018-03-14T23:25:35.906Z,16.30
2018-03-14T23:28:04.234Z,16.92
2018-03-14T23:30:32.574Z,14.93
2018-03-14T23:33:00.893Z,14.02
2018-03-14T23:35:29.234Z,18.40
2018-03-14T23:37:57.547Z,10.43
2018-03-14T23:40:25.891Z,16.80
2018-03-14T23:42:54.210Z,16.40
2018-03-14T23:45:22.555Z,13.43
2018-03-14T23:47:50.874Z,12.00
2018-03-14T23:50:19.218Z,21.75
2018-03-14T23:52:47.526Z,13.68
2018-03-14T23:55:15.866Z,14.10
2018-03-14T23:57:44.184Z,12.40
